sensor_id;sensor_type;location;lat;lon;timestamp;temperature;humidity
25436;DHT22;13363;52.772;-3.890;2023-03-23T00:01:54;10.90;99.90
25436;DHT22;13363;52.772;-3.890;2023-03-23T00:04:20;10.90;99.90
25436;DHT22;13363;52.772;-3.890;2023-03-23T00:06:46;10.90;99.90
25436;DHT22;13363;52.772;-3.890;2023-03-23T00:09:13;10.90;99.90
25436;DHT22;13363;52.772;-3.890;2023-03-23T00:11:41;10.90;99.90
25436;DHT22;13363;52.772;-3.890;2023-03-23T00:14:08;10.90;99.90
25436;DHT22;13363;52.772;-3.890;2023-03-23T00:16:40;10.90;99.90
25436;DHT22;13363;52.772;-3.890;2023-03-23T00:19:10;10.90;99.90
25436;DHT22;13363;52.772;-3.890;2023-03-23T00:21:39;10.90;99.90
25436;DHT22;13363;52.772;-3.890;2023-03-23T00:24:12;10.90;99.90
25436;DHT22;13363;52.772;-3.890;2023-03-23T00:26:40;10.90;99.90
25436;DHT22;13363;52.772;-3.890;2023-03-23T00:29:17;10.80;99.90
25436;DHT22;13363;52.772;-3.890;2023-03-23T00:31:45;10.90;99.90
25436;DHT22;13363;52.772;-3.890;2023-03-23T00:34:19;10.80;99.90
25436;DHT22;13363;52.772;-3.890;2023-03-23T00:36:53;10.80;99.90
25436;DHT22;13363;52.772;-3.890;2023-03-23T00:39:23;10.80;99.90
25436;DHT22;13363;52.772;-3.890;2023-03-23T00:41:52;10.80;99.90
25436;DHT22;13363;52.772;-3.890;2023-03-23T00:44:18;10.80;99.90
25436;DHT22;13363;52.772;-3.890;2023-03-23T00:46:45;10.90;99.90
25436;DHT22;13363;52.772;-3.890;2023-03-23T00:49:13;10.90;99.90
25436;DHT22;13363;52.772;-3.890;2023-03-23T00:51:40;10.90;99.90
25436;DHT22;13363;52.772;-3.890;2023-03-23T00:54:06;11.00;99.90
25436;DHT22;13363;52.772;-3.890;2023-03-23T00:56:32;11.00;99.90
25436;DHT22;13363;52.772;-3.890;2023-03-23T00:58:58;11.10;99.90
25436;DHT22;13363;52.772;-3.890;2023-03-23T01:01:24;11.10;99.90
25436;DHT22;13363;52.772;-3.890;2023-03-23T01:03:49;11.10;99.90
25436;DHT22;13363;52.772;-3.890;2023-03-23T01:06:15;11.20;99.90
25436;DHT22;13363;52.772;-3.890;2023-03-23T01:08:42;11.10;99.90
25436;DHT22;13363;52.772;-3.890;2023-03-23T01:11:15;11.10;99.90
25436;DHT22;13363;52.772;-3.890;2023-03-23T01:13:42;11.10;99.90
25436;DHT22;13363;52.772;-3.890;2023-03-23T01:16:09;11.20;99.90
25436;DHT22;13363;52.772;-3.890;2023-03-23T01:18:36;11.20;99.90
25436;DHT22;13363;52.772;-3.890;2023-03-23T01:21:10;11.20;99.90
25436;DHT22;13363;52.772;-3.890;2023-03-23T01:23:37;11.20;99.90
25436;DHT22;13363;52.772;-3.890;2023-03-23T01:26:08;11.20;99.90
25436;DHT22;13363;52.772;-3.890;2023-03-23T01:28:35;11.30;99.90
25436;DHT22;13363;52.772;-3.890;2023-03-23T01:31:06;11.20;99.90
25436;DHT22;13363;52.772;-3.890;2023-03-23T01:33:33;11.20;99.90
25436;DHT22;13363;52.772;-3.890;2023-03-23T01:36:04;11.20;99.90
25436;DHT22;13363;52.772;-3.890;2023-03-23T01:38:30;11.20;99.90
25436;DHT22;13363;52.772;-3.890;2023-03-23T01:40:56;11.20;99.90
25436;DHT22;13363;52.772;-3.890;2023-03-23T01:43:22;11.20;99.90
25436;DHT22;13363;52.772;-3.890;2023-03-23T01:45:47;11.20;99.90
25436;DHT22;13363;52.772;-3.890;2023-03-23T01:50:53;12.00;99.90
25436;DHT22;13363;52.772;-3.890;2023-03-23T01:53:22;11.20;99.90
25436;DHT22;13363;52.772;-3.890;2023-03-23T01:55:50;11.30;99.90
25436;DHT22;13363;52.772;-3.890;2023-03-23T01:58:22;11.30;99.90
25436;DHT22;13363;52.772;-3.890;2023-03-23T02:00:52;11.30;99.90
25436;DHT22;13363;52.772;-3.890;2023-03-23T02:03:19;11.30;99.90
25436;DHT22;13363;52.772;-3.890;2023-03-23T02:05:45;11.30;99.90
25436;DHT22;13363;52.772;-3.890;2023-03-23T02:08:11;11.30;99.90
25436;DHT22;13363;52.772;-3.890;2023-03-23T02:10:39;11.20;99.90
25436;DHT22;13363;52.772;-3.890;2023-03-23T02:13:08;11.20;99.90
25436;DHT22;13363;52.772;-3.890;2023-03-23T02:15:51;11.20;99.90
25436;DHT22;13363;52.772;-3.890;2023-03-23T02:23:46;11.20;99.90
25436;DHT22;13363;52.772;-3.890;2023-03-23T02:31:51;11.20;99.90
25436;DHT22;13363;52.772;-3.890;2023-03-23T02:34:27;11.10;99.90
25436;DHT22;13363;52.772;-3.890;2023-03-23T02:37:24;11.10;99.90
25436;DHT22;13363;52.772;-3.890;2023-03-23T02:40:02;11.10;99.90
25436;DHT22;13363;52.772;-3.890;2023-03-23T02:42:39;11.10;99.90
25436;DHT22;13363;52.772;-3.890;2023-03-23T02:45:10;11.00;99.90
25436;DHT22;13363;52.772;-3.890;2023-03-23T02:47:38;11.10;99.90
25436;DHT22;13363;52.772;-3.890;2023-03-23T02:50:08;11.20;99.90
25436;DHT22;13363;52.772;-3.890;2023-03-23T02:52:36;11.20;99.90
25436;DHT22;13363;52.772;-3.890;2023-03-23T02:55:05;11.30;99.90
25436;DHT22;13363;52.772;-3.890;2023-03-23T02:57:31;11.30;99.90
25436;DHT22;13363;52.772;-3.890;2023-03-23T02:59:57;11.30;99.90
25436;DHT22;13363;52.772;-3.890;2023-03-23T03:02:33;11.30;99.90
25436;DHT22;13363;52.772;-3.890;2023-03-23T03:05:27;11.30;99.90
25436;DHT22;13363;52.772;-3.890;2023-03-23T03:08:13;11.30;99.90
25436;DHT22;13363;52.772;-3.890;2023-03-23T03:11:05;11.30;99.90
25436;DHT22;13363;52.772;-3.890;2023-03-23T03:19:38;11.30;99.90
25436;DHT22;13363;52.772;-3.890;2023-03-23T03:22:06;11.30;99.90
25436;DHT22;13363;52.772;-3.890;2023-03-23T03:24:34;11.30;99.90
25436;DHT22;13363;52.772;-3.890;2023-03-23T03:27:04;11.30;99.90
25436;DHT22;13363;52.772;-3.890;2023-03-23T03:29:37;11.30;99.90
25436;DHT22;13363;52.772;-3.890;2023-03-23T03:32:10;11.20;99.90
25436;DHT22;13363;52.772;-3.890;2023-03-23T03:34:36;11.10;99.90
25436;DHT22;13363;52.772;-3.890;2023-03-23T03:37:04;11.10;99.90
25436;DHT22;13363;52.772;-3.890;2023-03-23T03:39:34;11.20;99.90
25436;DHT22;13363;52.772;-3.890;2023-03-23T03:42:00;11.20;99.90
25436;DHT22;13363;52.772;-3.890;2023-03-23T03:44:26;11.20;99.90
25436;DHT22;13363;52.772;-3.890;2023-03-23T03:46:51;11.20;99.90
25436;DHT22;13363;52.772;-3.890;2023-03-23T03:49:17;11.30;99.90
25436;DHT22;13363;52.772;-3.890;2023-03-23T03:51:44;11.30;99.90
25436;DHT22;13363;52.772;-3.890;2023-03-23T03:54:11;11.30;99.90
25436;DHT22;13363;52.772;-3.890;2023-03-23T03:56:37;11.20;99.90
25436;DHT22;13363;52.772;-3.890;2023-03-23T03:59:07;11.30;99.90
25436;DHT22;13363;52.772;-3.890;2023-03-23T04:01:33;11.30;99.90
25436;DHT22;13363;52.772;-3.890;2023-03-23T04:03:59;11.40;99.90
25436;DHT22;13363;52.772;-3.890;2023-03-23T04:06:25;11.40;99.90
25436;DHT22;13363;52.772;-3.890;2023-03-23T04:08:54;11.40;99.90
25436;DHT22;13363;52.772;-3.890;2023-03-23T04:11:20;11.40;99.90
25436;DHT22;13363;52.772;-3.890;2023-03-23T04:13:46;11.40;99.90
25436;DHT22;13363;52.772;-3.890;2023-03-23T04:16:12;11.30;99.90
25436;DHT22;13363;52.772;-3.890;2023-03-23T04:18:38;11.40;99.90
25436;DHT22;13363;52.772;-3.890;2023-03-23T04:21:04;11.30;99.90
25436;DHT22;13363;52.772;-3.890;2023-03-23T04:23:31;11.30;99.90
25436;DHT22;13363;52.772;-3.890;2023-03-23T04:25:59;11.40;99.90
25436;DHT22;13363;52.772;-3.890;2023-03-23T04:28:25;11.40;99.90
25436;DHT22;13363;52.772;-3.890;2023-03-23T04:30:52;11.50;99.90
25436;DHT22;13363;52.772;-3.890;2023-03-23T04:33:22;11.40;99.90
25436;DHT22;13363;52.772;-3.890;2023-03-23T04:35:51;11.50;99.90
25436;DHT22;13363;52.772;-3.890;2023-03-23T04:38:17;11.50;99.90
25436;DHT22;13363;52.772;-3.890;2023-03-23T04:40:46;11.50;99.90
25436;DHT22;13363;52.772;-3.890;2023-03-23T04:43:12;11.50;99.90
25436;DHT22;13363;52.772;-3.890;2023-03-23T04:45:40;11.60;99.90
25436;DHT22;13363;52.772;-3.890;2023-03-23T04:48:10;11.60;99.90
25436;DHT22;13363;52.772;-3.890;2023-03-23T04:50:37;11.60;99.90
25436;DHT22;13363;52.772;-3.890;2023-03-23T04:53:04;11.60;99.90
25436;DHT22;13363;52.772;-3.890;2023-03-23T04:55:35;11.60;99.90
25436;DHT22;13363;52.772;-3.890;2023-03-23T04:58:06;11.60;99.90
25436;DHT22;13363;52.772;-3.890;2023-03-23T05:00:35;11.60;99.90
25436;DHT22;13363;52.772;-3.890;2023-03-23T05:03:01;11.60;99.90
25436;DHT22;13363;52.772;-3.890;2023-03-23T05:05:27;11.70;99.90
25436;DHT22;13363;52.772;-3.890;2023-03-23T05:07:56;11.70;99.90
25436;DHT22;13363;52.772;-3.890;2023-03-23T05:10:22;11.70;99.90
25436;DHT22;13363;52.772;-3.890;2023-03-23T05:12:48;11.70;99.90
25436;DHT22;13363;52.772;-3.890;2023-03-23T05:15:16;11.60;99.90
25436;DHT22;13363;52.772;-3.890;2023-03-23T05:17:42;11.60;99.90
25436;DHT22;13363;52.772;-3.890;2023-03-23T05:20:13;11.70;99.90
25436;DHT22;13363;52.772;-3.890;2023-03-23T05:22:41;11.60;99.90
25436;DHT22;13363;52.772;-3.890;2023-03-23T05:25:07;11.70;99.90
25436;DHT22;13363;52.772;-3.890;2023-03-23T05:27:39;11.70;99.90
25436;DHT22;13363;52.772;-3.890;2023-03-23T05:30:08;11.70;99.90
25436;DHT22;13363;52.772;-3.890;2023-03-23T05:32:34;11.70;99.90
25436;DHT22;13363;52.772;-3.890;2023-03-23T05:35:00;11.70;99.90
25436;DHT22;13363;52.772;-3.890;2023-03-23T05:37:27;11.80;99.90
25436;DHT22;13363;52.772;-3.890;2023-03-23T05:39:59;11.80;99.90
25436;DHT22;13363;52.772;-3.890;2023-03-23T05:42:31;11.80;99.90
25436;DHT22;13363;52.772;-3.890;2023-03-23T05:44:58;11.90;99.90
25436;DHT22;13363;52.772;-3.890;2023-03-23T05:47:24;11.90;99.90
25436;DHT22;13363;52.772;-3.890;2023-03-23T05:49:51;11.80;99.90
25436;DHT22;13363;52.772;-3.890;2023-03-23T05:52:17;11.90;99.90
25436;DHT22;13363;52.772;-3.890;2023-03-23T05:54:43;11.90;99.90
25436;DHT22;13363;52.772;-3.890;2023-03-23T05:57:10;11.90;99.90
25436;DHT22;13363;52.772;-3.890;2023-03-23T05:59:36;11.90;99.90
25436;DHT22;13363;52.772;-3.890;2023-03-23T06:02:02;11.90;99.90
25436;DHT22;13363;52.772;-3.890;2023-03-23T06:04:28;11.90;99.90
25436;DHT22;13363;52.772;-3.890;2023-03-23T06:06:54;11.90;99.90
25436;DHT22;13363;52.772;-3.890;2023-03-23T06:09:20;11.90;99.90
25436;DHT22;13363;52.772;-3.890;2023-03-23T06:11:46;11.90;99.90
25436;DHT22;13363;52.772;-3.890;2023-03-23T06:14:13;11.90;99.90
25436;DHT22;13363;52.772;-3.890;2023-03-23T06:16:38;12.00;99.90
25436;DHT22;13363;52.772;-3.890;2023-03-23T06:19:04;11.90;99.90
25436;DHT22;13363;52.772;-3.890;2023-03-23T06:21:30;11.90;99.90
25436;DHT22;13363;52.772;-3.890;2023-03-23T06:23:57;11.90;99.90
25436;DHT22;13363;52.772;-3.890;2023-03-23T06:26:28;12.00;99.90
25436;DHT22;13363;52.772;-3.890;2023-03-23T06:28:56;12.00;99.90
25436;DHT22;13363;52.772;-3.890;2023-03-23T06:31:23;11.90;99.90
25436;DHT22;13363;52.772;-3.890;2023-03-23T06:33:49;12.00;99.90
25436;DHT22;13363;52.772;-3.890;2023-03-23T06:36:15;11.90;99.90
25436;DHT22;13363;52.772;-3.890;2023-03-23T06:38:42;11.90;99.90
25436;DHT22;13363;52.772;-3.890;2023-03-23T06:41:08;12.00;99.90
25436;DHT22;13363;52.772;-3.890;2023-03-23T06:43:34;12.00;99.90
25436;DHT22;13363;52.772;-3.890;2023-03-23T06:46:01;11.90;99.90
25436;DHT22;13363;52.772;-3.890;2023-03-23T06:48:28;11.90;99.90
25436;DHT22;13363;52.772;-3.890;2023-03-23T06:50:53;11.90;99.90
25436;DHT22;13363;52.772;-3.890;2023-03-23T06:53:19;11.90;99.90
25436;DHT22;13363;52.772;-3.890;2023-03-23T06:55:46;11.80;99.90
25436;DHT22;13363;52.772;-3.890;2023-03-23T06:58:12;11.80;99.90
25436;DHT22;13363;52.772;-3.890;2023-03-23T07:00:38;11.70;99.90
25436;DHT22;13363;52.772;-3.890;2023-03-23T07:03:06;11.70;99.90
25436;DHT22;13363;52.772;-3.890;2023-03-23T07:05:33;11.70;99.90
25436;DHT22;13363;52.772;-3.890;2023-03-23T07:07:59;11.70;99.90
25436;DHT22;13363;52.772;-3.890;2023-03-23T07:10:25;11.70;99.90
25436;DHT22;13363;52.772;-3.890;2023-03-23T07:12:51;11.70;99.90
25436;DHT22;13363;52.772;-3.890;2023-03-23T07:15:16;11.80;99.90
25436;DHT22;13363;52.772;-3.890;2023-03-23T07:17:42;11.80;99.90
25436;DHT22;13363;52.772;-3.890;2023-03-23T07:20:08;11.90;99.90
25436;DHT22;13363;52.772;-3.890;2023-03-23T07:22:35;11.90;99.90
25436;DHT22;13363;52.772;-3.890;2023-03-23T07:25:00;11.90;99.90
25436;DHT22;13363;52.772;-3.890;2023-03-23T07:27:27;11.90;99.90
25436;DHT22;13363;52.772;-3.890;2023-03-23T07:29:53;11.80;99.90
25436;DHT22;13363;52.772;-3.890;2023-03-23T07:32:18;11.60;99.90
25436;DHT22;13363;52.772;-3.890;2023-03-23T07:34:44;11.40;99.90
25436;DHT22;13363;52.772;-3.890;2023-03-23T07:37:09;11.30;99.90
25436;DHT22;13363;52.772;-3.890;2023-03-23T07:39:35;11.20;99.90
25436;DHT22;13363;52.772;-3.890;2023-03-23T07:42:02;11.20;99.90
25436;DHT22;13363;52.772;-3.890;2023-03-23T07:44:27;11.10;99.90
25436;DHT22;13363;52.772;-3.890;2023-03-23T07:46:53;11.00;99.90
25436;DHT22;13363;52.772;-3.890;2023-03-23T07:49:19;11.10;99.90
25436;DHT22;13363;52.772;-3.890;2023-03-23T07:51:45;11.20;99.90
25436;DHT22;13363;52.772;-3.890;2023-03-23T07:54:12;11.30;99.90
25436;DHT22;13363;52.772;-3.890;2023-03-23T07:56:39;11.30;99.90
25436;DHT22;13363;52.772;-3.890;2023-03-23T07:59:06;11.30;99.90
25436;DHT22;13363;52.772;-3.890;2023-03-23T08:01:32;11.20;99.90
25436;DHT22;13363;52.772;-3.890;2023-03-23T08:03:58;11.20;99.90
25436;DHT22;13363;52.772;-3.890;2023-03-23T08:08:51;11.30;99.90
25436;DHT22;13363;52.772;-3.890;2023-03-23T08:11:18;11.40;99.90
25436;DHT22;13363;52.772;-3.890;2023-03-23T08:13:44;11.40;99.90
25436;DHT22;13363;52.772;-3.890;2023-03-23T08:16:11;11.30;99.90
25436;DHT22;13363;52.772;-3.890;2023-03-23T08:18:37;11.20;99.90
25436;DHT22;13363;52.772;-3.890;2023-03-23T08:21:05;11.20;99.90
25436;DHT22;13363;52.772;-3.890;2023-03-23T08:23:34;11.20;99.90
25436;DHT22;13363;52.772;-3.890;2023-03-23T08:26:00;11.30;99.90
25436;DHT22;13363;52.772;-3.890;2023-03-23T08:28:27;11.40;99.90
25436;DHT22;13363;52.772;-3.890;2023-03-23T08:30:52;11.60;99.90
25436;DHT22;13363;52.772;-3.890;2023-03-23T08:33:18;12.00;99.90
25436;DHT22;13363;52.772;-3.890;2023-03-23T08:35:54;12.20;99.90
25436;DHT22;13363;52.772;-3.890;2023-03-23T08:38:20;12.00;99.90
25436;DHT22;13363;52.772;-3.890;2023-03-23T08:40:46;11.80;99.90
25436;DHT22;13363;52.772;-3.890;2023-03-23T08:43:13;11.60;99.90
25436;DHT22;13363;52.772;-3.890;2023-03-23T08:45:39;11.50;99.90
25436;DHT22;13363;52.772;-3.890;2023-03-23T08:48:05;11.40;99.90
25436;DHT22;13363;52.772;-3.890;2023-03-23T08:50:33;11.30;99.90
25436;DHT22;13363;52.772;-3.890;2023-03-23T08:52:59;11.20;99.90
25436;DHT22;13363;52.772;-3.890;2023-03-23T08:55:25;11.10;99.90
25436;DHT22;13363;52.772;-3.890;2023-03-23T08:57:51;11.00;99.90
25436;DHT22;13363;52.772;-3.890;2023-03-23T09:00:19;11.00;99.90
25436;DHT22;13363;52.772;-3.890;2023-03-23T09:02:49;11.00;99.90
25436;DHT22;13363;52.772;-3.890;2023-03-23T09:50:21;11.60;99.90
25436;DHT22;13363;52.772;-3.890;2023-03-23T09:52:58;11.60;99.90
25436;DHT22;13363;52.772;-3.890;2023-03-23T09:55:24;11.50;99.90
25436;DHT22;13363;52.772;-3.890;2023-03-23T09:58:07;11.50;99.90
25436;DHT22;13363;52.772;-3.890;2023-03-23T10:01:00;11.70;99.90
25436;DHT22;13363;52.772;-3.890;2023-03-23T10:03:51;11.90;99.90
25436;DHT22;13363;52.772;-3.890;2023-03-23T10:06:18;12.00;99.90
25436;DHT22;13363;52.772;-3.890;2023-03-23T10:08:52;12.30;99.90
25436;DHT22;13363;52.772;-3.890;2023-03-23T10:17:33;13.10;99.90
25436;DHT22;13363;52.772;-3.890;2023-03-23T10:22:37;14.10;99.90
25436;DHT22;13363;52.772;-3.890;2023-03-23T10:28:11;14.30;99.90
25436;DHT22;13363;52.772;-3.890;2023-03-23T10:30:57;14.60;99.90
25436;DHT22;13363;52.772;-3.890;2023-03-23T10:33:56;14.10;99.90
25436;DHT22;13363;52.772;-3.890;2023-03-23T10:36:31;13.90;99.90
25436;DHT22;13363;52.772;-3.890;2023-03-23T10:39:12;13.70;99.90
25436;DHT22;13363;52.772;-3.890;2023-03-23T10:41:38;13.50;99.90
25436;DHT22;13363;52.772;-3.890;2023-03-23T10:44:23;13.40;99.90
25436;DHT22;13363;52.772;-3.890;2023-03-23T10:47:04;13.90;99.90
25436;DHT22;13363;52.772;-3.890;2023-03-23T10:55:00;14.60;99.90
25436;DHT22;13363;52.772;-3.890;2023-03-23T10:57:29;14.50;99.90
25436;DHT22;13363;52.772;-3.890;2023-03-23T11:02:32;13.80;99.90
25436;DHT22;13363;52.772;-3.890;2023-03-23T11:05:13;13.70;99.90
25436;DHT22;13363;52.772;-3.890;2023-03-23T11:07:39;13.50;99.90
25436;DHT22;13363;52.772;-3.890;2023-03-23T11:10:21;13.40;99.90
25436;DHT22;13363;52.772;-3.890;2023-03-23T11:12:47;13.60;99.90
25436;DHT22;13363;52.772;-3.890;2023-03-23T11:17:58;13.60;99.90
25436;DHT22;13363;52.772;-3.890;2023-03-23T11:20:25;13.60;99.90
25436;DHT22;13363;52.772;-3.890;2023-03-23T11:22:52;13.70;99.90
25436;DHT22;13363;52.772;-3.890;2023-03-23T11:25:18;13.80;99.90
25436;DHT22;13363;52.772;-3.890;2023-03-23T11:27:44;14.10;99.90
25436;DHT22;13363;52.772;-3.890;2023-03-23T11:30:14;14.10;99.90
25436;DHT22;13363;52.772;-3.890;2023-03-23T11:32:45;14.20;99.90
25436;DHT22;13363;52.772;-3.890;2023-03-23T11:35:17;14.40;99.90
25436;DHT22;13363;52.772;-3.890;2023-03-23T11:37:54;14.70;99.90
25436;DHT22;13363;52.772;-3.890;2023-03-23T11:40:31;15.10;99.90
25436;DHT22;13363;52.772;-3.890;2023-03-23T11:45:33;15.00;99.90
25436;DHT22;13363;52.772;-3.890;2023-03-23T11:51:05;14.70;99.90
25436;DHT22;13363;52.772;-3.890;2023-03-23T11:56:34;14.30;99.90
25436;DHT22;13363;52.772;-3.890;2023-03-23T11:59:00;14.50;99.90
25436;DHT22;13363;52.772;-3.890;2023-03-23T12:07:23;14.50;99.90
25436;DHT22;13363;52.772;-3.890;2023-03-23T12:10:02;14.50;99.90
25436;DHT22;13363;52.772;-3.890;2023-03-23T12:15:23;14.60;99.90
25436;DHT22;13363;52.772;-3.890;2023-03-23T12:18:16;14.70;99.90
25436;DHT22;13363;52.772;-3.890;2023-03-23T12:24:00;14.50;99.90
25436;DHT22;13363;52.772;-3.890;2023-03-23T12:45:21;14.50;99.90
25436;DHT22;13363;52.772;-3.890;2023-03-23T12:48:04;14.40;99.90
25436;DHT22;13363;52.772;-3.890;2023-03-23T12:50:45;14.50;99.90
25436;DHT22;13363;52.772;-3.890;2023-03-23T12:53:22;14.60;99.90
25436;DHT22;13363;52.772;-3.890;2023-03-23T12:56:02;14.50;99.90
25436;DHT22;13363;52.772;-3.890;2023-03-23T12:58:33;14.70;99.90
25436;DHT22;13363;52.772;-3.890;2023-03-23T13:01:10;15.00;99.90
25436;DHT22;13363;52.772;-3.890;2023-03-23T13:06:25;15.10;99.90
25436;DHT22;13363;52.772;-3.890;2023-03-23T13:11:31;15.10;99.90
25436;DHT22;13363;52.772;-3.890;2023-03-23T13:25:39;14.90;99.90
25436;DHT22;13363;52.772;-3.890;2023-03-23T13:28:21;15.10;99.90
25436;DHT22;13363;52.772;-3.890;2023-03-23T13:35:50;15.10;99.90
25436;DHT22;13363;52.772;-3.890;2023-03-23T13:38:28;15.10;99.90
25436;DHT22;13363;52.772;-3.890;2023-03-23T13:40:55;15.10;99.90
25436;DHT22;13363;52.772;-3.890;2023-03-23T13:43:30;15.10;99.90
25436;DHT22;13363;52.772;-3.890;2023-03-23T13:46:12;15.10;99.90
25436;DHT22;13363;52.772;-3.890;2023-03-23T13:59:32;15.10;99.90
25436;DHT22;13363;52.772;-3.890;2023-03-23T14:02:59;14.90;99.90
25436;DHT22;13363;52.772;-3.890;2023-03-23T14:10:31;14.80;99.90
25436;DHT22;13363;52.772;-3.890;2023-03-23T14:12:59;14.80;99.90
25436;DHT22;13363;52.772;-3.890;2023-03-23T14:15:29;14.50;99.90
25436;DHT22;13363;52.772;-3.890;2023-03-23T14:17:55;14.50;99.90
25436;DHT22;13363;52.772;-3.890;2023-03-23T14:20:29;14.10;99.90
25436;DHT22;13363;52.772;-3.890;2023-03-23T14:22:57;13.80;99.90
25436;DHT22;13363;52.772;-3.890;2023-03-23T14:25:28;13.70;99.90
25436;DHT22;13363;52.772;-3.890;2023-03-23T14:27:55;13.70;99.90
25436;DHT22;13363;52.772;-3.890;2023-03-23T14:30:24;13.50;99.90
25436;DHT22;13363;52.772;-3.890;2023-03-23T14:32:51;13.50;99.90
25436;DHT22;13363;52.772;-3.890;2023-03-23T14:35:35;13.50;99.90
25436;DHT22;13363;52.772;-3.890;2023-03-23T14:38:01;13.60;99.90
25436;DHT22;13363;52.772;-3.890;2023-03-23T14:40:28;13.80;99.90
25436;DHT22;13363;52.772;-3.890;2023-03-23T14:42:55;13.70;99.90
25436;DHT22;13363;52.772;-3.890;2023-03-23T14:45:23;13.60;99.90
25436;DHT22;13363;52.772;-3.890;2023-03-23T14:47:53;13.50;99.90
25436;DHT22;13363;52.772;-3.890;2023-03-23T14:50:39;13.70;99.90
25436;DHT22;13363;52.772;-3.890;2023-03-23T14:53:22;13.90;99.90
25436;DHT22;13363;52.772;-3.890;2023-03-23T14:55:49;13.90;99.90
25436;DHT22;13363;52.772;-3.890;2023-03-23T14:58:17;13.90;99.90
25436;DHT22;13363;52.772;-3.890;2023-03-23T15:03:20;13.90;99.90
25436;DHT22;13363;52.772;-3.890;2023-03-23T15:05:51;13.80;99.90
25436;DHT22;13363;52.772;-3.890;2023-03-23T15:08:29;13.80;99.90
25436;DHT22;13363;52.772;-3.890;2023-03-23T15:11:08;13.80;99.90
25436;DHT22;13363;52.772;-3.890;2023-03-23T15:13:37;13.80;99.90
25436;DHT22;13363;52.772;-3.890;2023-03-23T15:16:29;13.70;99.90
25436;DHT22;13363;52.772;-3.890;2023-03-23T15:19:05;13.60;99.90
25436;DHT22;13363;52.772;-3.890;2023-03-23T15:24:00;13.50;99.90
25436;DHT22;13363;52.772;-3.890;2023-03-23T15:26:42;13.70;99.90
25436;DHT22;13363;52.772;-3.890;2023-03-23T15:31:42;14.00;99.90
25436;DHT22;13363;52.772;-3.890;2023-03-23T15:34:38;14.10;99.90
25436;DHT22;13363;52.772;-3.890;2023-03-23T15:39:45;14.20;99.90
25436;DHT22;13363;52.772;-3.890;2023-03-23T15:42:27;14.20;99.90
25436;DHT22;13363;52.772;-3.890;2023-03-23T15:48:08;14.30;99.90
25436;DHT22;13363;52.772;-3.890;2023-03-23T15:50:35;14.30;99.90
25436;DHT22;13363;52.772;-3.890;2023-03-23T15:53:51;14.30;99.90
25436;DHT22;13363;52.772;-3.890;2023-03-23T15:56:02;14.30;99.90
25436;DHT22;13363;52.772;-3.890;2023-03-23T15:58:30;14.30;99.90
25436;DHT22;13363;52.772;-3.890;2023-03-23T16:00:56;14.20;99.90
25436;DHT22;13363;52.772;-3.890;2023-03-23T16:03:26;14.20;99.90
25436;DHT22;13363;52.772;-3.890;2023-03-23T16:05:57;14.20;99.90
25436;DHT22;13363;52.772;-3.890;2023-03-23T16:08:29;14.30;99.90
25436;DHT22;13363;52.772;-3.890;2023-03-23T16:10:56;14.30;99.90
25436;DHT22;13363;52.772;-3.890;2023-03-23T16:13:22;14.30;99.90
25436;DHT22;13363;52.772;-3.890;2023-03-23T16:15:48;14.30;99.90
25436;DHT22;13363;52.772;-3.890;2023-03-23T16:18:18;14.30;99.90
25436;DHT22;13363;52.772;-3.890;2023-03-23T16:20:44;14.30;99.90
25436;DHT22;13363;52.772;-3.890;2023-03-23T16:23:09;14.30;99.90
25436;DHT22;13363;52.772;-3.890;2023-03-23T16:25:35;14.40;99.90
25436;DHT22;13363;52.772;-3.890;2023-03-23T16:28:01;14.40;99.90
25436;DHT22;13363;52.772;-3.890;2023-03-23T16:30:28;14.40;99.90
25436;DHT22;13363;52.772;-3.890;2023-03-23T16:32:54;14.30;99.90
25436;DHT22;13363;52.772;-3.890;2023-03-23T16:35:20;14.30;99.90
25436;DHT22;13363;52.772;-3.890;2023-03-23T16:37:51;14.30;99.90
25436;DHT22;13363;52.772;-3.890;2023-03-23T16:40:18;14.20;99.90
25436;DHT22;13363;52.772;-3.890;2023-03-23T16:42:45;14.40;99.90
25436;DHT22;13363;52.772;-3.890;2023-03-23T16:45:12;14.40;99.90
25436;DHT22;13363;52.772;-3.890;2023-03-23T16:47:39;14.40;99.90
25436;DHT22;13363;52.772;-3.890;2023-03-23T16:50:07;14.30;99.90
25436;DHT22;13363;52.772;-3.890;2023-03-23T16:52:34;14.40;99.90
25436;DHT22;13363;52.772;-3.890;2023-03-23T16:55:00;14.30;99.90
25436;DHT22;13363;52.772;-3.890;2023-03-23T16:57:25;14.30;99.90
25436;DHT22;13363;52.772;-3.890;2023-03-23T16:59:51;14.20;99.90
25436;DHT22;13363;52.772;-3.890;2023-03-23T17:02:17;14.20;99.90
25436;DHT22;13363;52.772;-3.890;2023-03-23T17:04:44;14.10;99.90
25436;DHT22;13363;52.772;-3.890;2023-03-23T17:07:11;14.10;99.90
25436;DHT22;13363;52.772;-3.890;2023-03-23T17:09:38;14.10;99.90
25436;DHT22;13363;52.772;-3.890;2023-03-23T17:12:04;14.00;99.90
25436;DHT22;13363;52.772;-3.890;2023-03-23T17:14:29;14.00;99.90
25436;DHT22;13363;52.772;-3.890;2023-03-23T17:16:55;13.90;99.90
25436;DHT22;13363;52.772;-3.890;2023-03-23T17:19:21;13.80;99.90
25436;DHT22;13363;52.772;-3.890;2023-03-23T17:21:47;13.70;99.90
25436;DHT22;13363;52.772;-3.890;2023-03-23T17:26:38;13.60;99.90
25436;DHT22;13363;52.772;-3.890;2023-03-23T17:29:04;13.60;99.90
25436;DHT22;13363;52.772;-3.890;2023-03-23T17:31:30;13.50;99.90
25436;DHT22;13363;52.772;-3.890;2023-03-23T17:33:56;13.50;99.90
25436;DHT22;13363;52.772;-3.890;2023-03-23T17:36:22;13.50;99.90
25436;DHT22;13363;52.772;-3.890;2023-03-23T17:38:48;13.30;99.90
25436;DHT22;13363;52.772;-3.890;2023-03-23T17:43:41;13.00;99.90
25436;DHT22;13363;52.772;-3.890;2023-03-23T17:46:09;13.00;99.90
25436;DHT22;13363;52.772;-3.890;2023-03-23T17:48:35;12.90;99.90
25436;DHT22;13363;52.772;-3.890;2023-03-23T17:51:01;12.80;99.90
25436;DHT22;13363;52.772;-3.890;2023-03-23T17:53:29;12.80;99.90
25436;DHT22;13363;52.772;-3.890;2023-03-23T17:55:56;12.80;99.90
25436;DHT22;13363;52.772;-3.890;2023-03-23T17:58:23;12.70;99.90
25436;DHT22;13363;52.772;-3.890;2023-03-23T18:00:53;12.80;99.90
25436;DHT22;13363;52.772;-3.890;2023-03-23T18:03:19;12.70;99.90
25436;DHT22;13363;52.772;-3.890;2023-03-23T18:05:45;12.70;99.90
25436;DHT22;13363;52.772;-3.890;2023-03-23T18:08:11;12.70;99.90
25436;DHT22;13363;52.772;-3.890;2023-03-23T18:10:38;12.60;99.90
25436;DHT22;13363;52.772;-3.890;2023-03-23T18:13:06;12.70;99.90
25436;DHT22;13363;52.772;-3.890;2023-03-23T18:15:32;12.70;99.90
25436;DHT22;13363;52.772;-3.890;2023-03-23T18:17:59;12.70;99.90
25436;DHT22;13363;52.772;-3.890;2023-03-23T18:20:26;12.80;99.90
25436;DHT22;13363;52.772;-3.890;2023-03-23T18:22:51;12.70;99.90
25436;DHT22;13363;52.772;-3.890;2023-03-23T18:25:17;12.70;99.90
25436;DHT22;13363;52.772;-3.890;2023-03-23T18:27:43;12.70;99.90
25436;DHT22;13363;52.772;-3.890;2023-03-23T18:30:10;12.80;99.90
25436;DHT22;13363;52.772;-3.890;2023-03-23T18:32:37;12.70;99.90
25436;DHT22;13363;52.772;-3.890;2023-03-23T18:35:04;12.70;99.90